Saint Louis, Missouri
Traffic Map
Current Weather Conditions
Saint Louis, Missouri
Overcast
Overcast
26°
Feels Like: 26°
Wind Chill: 26° Ceiling: 6500
Heat Index: 26° Visibility: 10mi
Dew Point: 15° Wind: 20mph
Humidity: 52% Direction: 360° (N)
Pressure: 30.09in Gusts: 24mph
Raw Report DataKCPS 282153Z 36017G21KT 10SM FEW041 FEW050 OVC065 26/15 A3009 RMK AO2 SLP185 T02560150
Traffic Incident Summary
Active as of:
Severity:
Category:
InformationThere was an issue retrieving the traffic information for this location. Please try a different location or try again shortly.
Advertisements
Track Severe Weather on mobile